createdAt,value
2023-01-08T00:03:27.081Z,4.28
2023-01-08T00:08:29.497Z,4.35
2023-01-08T00:13:30.960Z,4.24
2023-01-08T00:18:32.808Z,4.21
2023-01-08T00:23:35.548Z,4.19
2023-01-08T00:28:38.037Z,4.28
2023-01-08T00:33:40.655Z,4.19
2023-01-08T00:38:43.170Z,4.37
2023-01-08T00:43:44.635Z,4.29
2023-01-08T00:48:46.098Z,4.34
2023-01-08T00:53:47.512Z,4.38
2023-01-08T00:58:49.275Z,4.37
2023-01-08T01:03:50.719Z,4.29
2023-01-08T01:08:52.458Z,4.20
2023-01-08T01:13:57.485Z,4.21
2023-01-08T01:18:58.969Z,4.33
2023-01-08T01:24:03.141Z,4.14
2023-01-08T01:29:04.929Z,4.04
2023-01-08T01:34:06.409Z,3.97
2023-01-08T01:39:08.058Z,3.92
2023-01-08T01:44:46.760Z,3.87
2023-01-08T01:50:19.670Z,3.88
2023-01-08T01:55:21.137Z,3.89
2023-01-08T02:00:23.265Z,3.95
2023-01-08T02:05:32.806Z,3.83
2023-01-08T02:10:48.259Z,3.96
2023-01-08T02:16:06.144Z,4.01
2023-01-08T02:21:11.213Z,4.00
2023-01-08T02:26:29.575Z,3.91
2023-01-08T02:31:33.008Z,3.95
2023-01-08T02:36:55.181Z,3.99
2023-01-08T02:42:06.923Z,3.83
2023-01-08T02:47:15.847Z,3.82
2023-01-08T02:52:18.132Z,3.77
2023-01-08T02:57:20.699Z,3.52
2023-01-08T03:02:22.840Z,3.69
2023-01-08T03:07:24.337Z,3.70
2023-01-08T03:12:43.751Z,3.63
2023-01-08T03:17:48.356Z,3.62
2023-01-08T03:22:54.520Z,3.61
2023-01-08T03:28:02.693Z,3.77
2023-01-08T03:33:06.160Z,3.82
2023-01-08T03:38:32.511Z,3.79
2023-01-08T03:43:34.005Z,3.74
2023-01-08T03:48:36.839Z,3.81
2023-01-08T03:53:38.482Z,3.73
2023-01-08T03:58:39.907Z,3.65
2023-01-08T04:03:41.336Z,3.50
2023-01-08T04:08:42.750Z,3.39
2023-01-08T04:13:44.247Z,3.30
2023-01-08T04:18:45.701Z,3.45
2023-01-08T04:23:47.582Z,3.42
2023-01-08T04:28:49.032Z,3.43
2023-01-08T04:33:50.487Z,3.47
2023-01-08T04:38:51.959Z,3.50
2023-01-08T04:43:53.379Z,3.71
2023-01-08T04:48:55.071Z,3.74
2023-01-08T04:53:57.679Z,3.65
2023-01-08T04:58:59.540Z,3.62
2023-01-08T05:04:02.810Z,3.65
2023-01-08T05:09:04.273Z,3.69
2023-01-08T05:14:05.712Z,3.81
2023-01-08T05:19:07.190Z,3.75
2023-01-08T05:24:09.459Z,3.77
2023-01-08T05:29:11.004Z,3.79
2023-01-08T05:34:12.483Z,3.74
2023-01-08T05:39:13.934Z,3.82
2023-01-08T05:44:15.358Z,3.93
2023-01-08T05:49:17.026Z,3.85
2023-01-08T05:54:18.600Z,3.76
2023-01-08T05:59:20.015Z,3.72
2023-01-08T06:04:21.545Z,3.81
2023-01-08T06:09:22.994Z,3.83
2023-01-08T06:14:24.751Z,3.89
2023-01-08T06:19:26.187Z,4.11
2023-01-08T06:24:27.592Z,4.00
2023-01-08T06:29:28.990Z,3.87
2023-01-08T06:34:30.448Z,3.91
2023-01-08T06:39:31.908Z,3.97
2023-01-08T06:44:33.325Z,4.09
2023-01-08T06:49:34.729Z,4.00
2023-01-08T06:54:36.245Z,3.82
2023-01-08T06:59:37.644Z,3.81
2023-01-08T07:04:39.105Z,4.00
2023-01-08T07:09:41.792Z,4.02
2023-01-08T07:14:43.229Z,4.04
2023-01-08T07:19:44.628Z,4.21
2023-01-08T07:24:46.031Z,4.25
2023-01-08T07:29:47.983Z,4.36
2023-01-08T07:34:49.405Z,4.32
2023-01-08T07:39:53.007Z,4.39
2023-01-08T07:44:54.416Z,4.54
2023-01-08T07:49:55.821Z,4.52
2023-01-08T07:54:57.317Z,4.37
2023-01-08T07:59:58.723Z,4.06
2023-01-08T08:05:00.188Z,4.24
2023-01-08T08:10:02.273Z,4.26
2023-01-08T08:15:04.078Z,4.42
2023-01-08T08:20:06.054Z,4.51
2023-01-08T08:25:07.930Z,4.68
2023-01-08T08:30:11.200Z,4.62
2023-01-08T08:35:12.643Z,4.94
2023-01-08T08:40:14.138Z,5.07
2023-01-08T08:45:15.571Z,5.30
2023-01-08T08:50:17.630Z,5.51
2023-01-08T08:55:19.228Z,5.81
2023-01-08T09:00:21.049Z,6.27
2023-01-08T09:05:22.474Z,6.52
2023-01-08T09:10:24.032Z,6.72
2023-01-08T09:15:25.499Z,6.95
2023-01-08T09:20:27.307Z,7.13
2023-01-08T09:25:29.259Z,7.42
2023-01-08T09:30:30.936Z,7.59
2023-01-08T09:35:33.260Z,7.86
2023-01-08T09:40:58.180Z,8.06
2023-01-08T09:46:03.923Z,8.32
2023-01-08T09:51:15.502Z,8.68
2023-01-08T09:56:18.943Z,9.16
2023-01-08T10:01:27.377Z,9.48
2023-01-08T10:06:28.956Z,9.47
2023-01-08T10:11:43.105Z,9.48
2023-01-08T10:16:48.075Z,9.51
2023-01-08T10:21:50.414Z,9.48
2023-01-08T10:26:53.744Z,9.54
2023-01-08T10:31:58.582Z,9.55
2023-01-08T10:37:00.548Z,9.37
2023-01-08T10:42:06.856Z,9.29
2023-01-08T10:47:18.290Z,9.41
2023-01-08T10:52:24.564Z,9.61
2023-01-08T10:57:30.907Z,9.55
2023-01-08T11:02:40.237Z,9.71
2023-01-08T11:07:42.443Z,9.47
2023-01-08T11:12:44.734Z,9.47
2023-01-08T11:17:46.615Z,9.58
2023-01-08T11:22:48.042Z,9.62
2023-01-08T11:27:51.445Z,9.91
2023-01-08T11:33:01.839Z,9.89
2023-01-08T11:38:06.152Z,9.97
2023-01-08T11:43:17.994Z,10.18
2023-01-08T11:48:29.785Z,9.64
2023-01-08T11:53:46.571Z,9.56
2023-01-08T11:59:13.125Z,9.60
2023-01-08T12:04:27.977Z,9.61
2023-01-08T12:09:35.544Z,9.66
2023-01-08T12:14:44.739Z,9.45
2023-01-08T12:20:11.453Z,9.68
2023-01-08T12:25:43.480Z,9.67
2023-01-08T12:31:09.546Z,9.47
2023-01-08T12:36:17.601Z,9.50
2023-01-08T12:41:19.617Z,9.43
2023-01-08T12:46:24.866Z,9.34
2023-01-08T12:51:37.159Z,9.32
2023-01-08T12:56:50.499Z,9.36
2023-01-08T13:02:04.999Z,9.31
2023-01-08T13:07:06.694Z,8.93
2023-01-08T13:12:09.080Z,8.82
2023-01-08T13:17:22.218Z,8.91
2023-01-08T13:22:25.240Z,8.68
2023-01-08T13:27:29.406Z,8.50
2023-01-08T13:32:47.868Z,8.35
2023-01-08T13:37:52.091Z,8.40
2023-01-08T13:42:53.603Z,8.36
2023-01-08T13:47:56.274Z,8.41
2023-01-08T13:53:00.131Z,8.42
2023-01-08T13:58:05.044Z,8.35
2023-01-08T14:03:30.951Z,8.35
2023-01-08T14:08:32.956Z,8.25
2023-01-08T14:13:35.635Z,8.21
2023-01-08T14:18:40.961Z,8.33
2023-01-08T14:23:46.534Z,8.39
2023-01-08T14:28:55.026Z,8.25
2023-01-08T14:33:59.114Z,8.04
2023-01-08T14:39:00.547Z,7.99
2023-01-08T14:44:02.556Z,7.93
2023-01-08T14:49:03.996Z,7.76
2023-01-08T14:54:08.528Z,7.67
2023-01-08T14:59:11.867Z,7.50
2023-01-08T15:04:18.908Z,7.45
2023-01-08T15:09:27.681Z,7.29
2023-01-08T15:14:39.054Z,7.39
2023-01-08T15:19:50.096Z,7.34
2023-01-08T15:25:17.057Z,7.26
2023-01-08T15:30:28.958Z,7.12
2023-01-08T15:35:30.366Z,7.06
2023-01-08T15:40:31.802Z,6.93
2023-01-08T15:45:33.456Z,6.90
2023-01-08T15:50:40.101Z,6.60
2023-01-08T15:55:43.707Z,6.39
2023-01-08T16:00:46.357Z,6.75
2023-01-08T16:05:47.833Z,6.58
2023-01-08T16:10:53.061Z,6.54
2023-01-08T16:15:55.824Z,6.58
2023-01-08T16:21:01.442Z,6.67
2023-01-08T16:26:10.256Z,6.62
2023-01-08T16:31:11.701Z,6.53
2023-01-08T16:36:13.156Z,6.53
2023-01-08T16:41:14.599Z,6.52
2023-01-08T16:46:18.025Z,6.42
2023-01-08T16:51:21.244Z,6.61
2023-01-08T16:56:22.796Z,6.56
2023-01-08T17:01:24.303Z,6.50
2023-01-08T17:06:25.769Z,6.53
2023-01-08T17:11:27.216Z,6.37
2023-01-08T17:16:29.475Z,6.47
2023-01-08T17:21:31.084Z,6.49
2023-01-08T17:26:32.723Z,6.62
2023-01-08T17:31:39.825Z,6.57
2023-01-08T17:36:41.821Z,6.65
2023-01-08T17:42:01.685Z,6.67
2023-01-08T17:47:03.107Z,6.59
2023-01-08T17:52:04.610Z,6.68
2023-01-08T17:57:06.041Z,6.73
2023-01-08T18:02:11.175Z,6.85
2023-01-08T18:07:12.748Z,6.89
2023-01-08T18:12:14.249Z,6.90
2023-01-08T18:17:15.763Z,6.94
2023-01-08T18:22:17.187Z,6.87
2023-01-08T18:27:18.656Z,6.82
2023-01-08T18:32:25.843Z,6.72
2023-01-08T18:37:27.402Z,6.70
2023-01-08T18:42:30.275Z,6.76
2023-01-08T18:47:31.774Z,6.86
2023-01-08T18:52:33.212Z,6.81
2023-01-08T18:57:34.707Z,6.89
2023-01-08T19:02:36.426Z,6.94
2023-01-08T19:07:38.013Z,6.88
2023-01-08T19:12:39.497Z,7.03
2023-01-08T19:17:40.925Z,7.10
2023-01-08T19:22:42.334Z,7.17
2023-01-08T19:27:43.828Z,7.19
2023-01-08T19:32:47.470Z,7.23
2023-01-08T19:37:48.965Z,7.17
2023-01-08T19:43:09.067Z,7.14
2023-01-08T19:48:10.485Z,7.12
2023-01-08T19:53:13.964Z,7.17
2023-01-08T19:58:18.547Z,7.14
2023-01-08T20:03:28.931Z,7.09
2023-01-08T20:08:30.337Z,7.03
2023-01-08T20:13:33.946Z,7.04
2023-01-08T20:18:35.970Z,7.02
2023-01-08T20:23:38.190Z,7.01
2023-01-08T20:28:40.002Z,6.90
2023-01-08T20:33:42.555Z,6.96
2023-01-08T20:38:45.016Z,6.86
2023-01-08T20:43:46.531Z,6.78
2023-01-08T20:48:48.440Z,6.59
2023-01-08T20:53:50.085Z,6.65
2023-01-08T20:58:51.614Z,6.61
2023-01-08T21:03:55.333Z,6.50
2023-01-08T21:08:59.572Z,6.42
2023-01-08T21:14:01.931Z,6.41
2023-01-08T21:19:03.958Z,6.40
2023-01-08T21:24:07.182Z,6.33
2023-01-08T21:29:09.059Z,6.33
2023-01-08T21:34:11.583Z,6.30
2023-01-08T21:39:13.269Z,6.08
2023-01-08T21:44:41.284Z,6.01
2023-01-08T21:49:43.515Z,5.98
2023-01-08T21:54:44.990Z,5.99
2023-01-08T21:59:49.287Z,5.81
2023-01-08T22:04:53.950Z,5.63
2023-01-08T22:09:55.617Z,5.59
2023-01-08T22:14:57.530Z,5.59
2023-01-08T22:20:00.296Z,5.57
2023-01-08T22:25:01.780Z,5.46
2023-01-08T22:30:04.227Z,5.44
2023-01-08T22:35:06.022Z,5.32
2023-01-08T22:40:07.980Z,5.21
2023-01-08T22:45:10.254Z,5.27
2023-01-08T22:50:12.281Z,5.25
2023-01-08T22:55:13.822Z,5.34
2023-01-08T23:00:15.655Z,5.40
2023-01-08T23:05:17.159Z,5.40
2023-01-08T23:10:18.758Z,5.32
2023-01-08T23:15:21.348Z,5.19
2023-01-08T23:20:24.848Z,5.28
2023-01-08T23:25:27.947Z,5.22
2023-01-08T23:30:31.460Z,5.20
2023-01-08T23:35:32.878Z,5.15
2023-01-08T23:40:34.316Z,5.07
2023-01-08T23:45:37.477Z,5.04
2023-01-08T23:50:38.947Z,4.91
2023-01-08T23:55:41.323Z,4.93
